Watson, Indiana
Current Conditions -  °F | °C
As of 8:53 AM on Tuesday 27 Jan 2015 (Local Time) from KLOU Reporting Station
Haze Haze  
Wind Chill: 25°   Ceiling: 1300
Heat Index: 30°   Visibility: 6mi
Dew Point: 26°   Wind: 5mph
Humidity: 85%   Direction: 360°N
Pressure: 30.03"   Gusts: NA
Location:  38.3363°N, 85.6984°W
Report Text: KLOU 271353Z 36004KT 6SM BR BKN013 OVC019 M01/M03 A3003 RMK AO2 SLP174 T10111033
Loading
Personal Weather Stations






























Interactive Weather Map New forecast layout! Learn more

10-Day Weather Forecast

Advertisements
Track Severe Weather on mobile